createdAt,value
2019-01-06T00:01:32.873Z,4.60
2019-01-06T00:04:19.437Z,4.37
2019-01-06T00:07:07.869Z,4.33
2019-01-06T00:09:53.203Z,4.13
2019-01-06T00:12:26.246Z,4.43
2019-01-06T00:15:13.185Z,4.50
2019-01-06T00:17:49.211Z,4.50
2019-01-06T00:20:35.682Z,4.57
2019-01-06T00:23:14.512Z,4.10
2019-01-06T00:25:56.759Z,4.50
2019-01-06T00:28:29.583Z,4.43
2019-01-06T00:31:02.997Z,4.60
2019-01-06T00:33:42.003Z,4.33
2019-01-06T00:36:27.143Z,4.57
2019-01-06T00:39:02.944Z,4.70
2019-01-06T00:41:41.907Z,4.87
2019-01-06T00:44:21.035Z,5.00
2019-01-06T00:47:07.730Z,4.70
2019-01-06T00:49:40.829Z,4.20
2019-01-06T00:52:20.386Z,4.20
2019-01-06T00:54:59.261Z,4.07
2019-01-06T00:57:41.532Z,4.37
2019-01-06T01:00:26.935Z,3.93
2019-01-06T01:02:57.166Z,4.13
2019-01-06T01:05:27.362Z,3.90
2019-01-06T01:08:03.242Z,3.73
2019-01-06T01:10:49.698Z,4.23
2019-01-06T01:13:25.631Z,4.17
2019-01-06T01:16:04.636Z,4.07
2019-01-06T01:18:51.450Z,3.70
2019-01-06T01:21:30.335Z,3.40
2019-01-06T01:24:18.368Z,4.13
2019-01-06T01:27:03.809Z,4.57
2019-01-06T01:29:50.147Z,5.13
2019-01-06T01:32:29.218Z,5.50
2019-01-06T01:35:08.576Z,6.00
2019-01-06T01:37:44.524Z,5.23
2019-01-06T01:40:17.604Z,4.53
2019-01-06T01:42:47.847Z,5.87
2019-01-06T01:45:27.416Z,5.03
2019-01-06T01:47:57.601Z,5.80
2019-01-06T01:50:27.734Z,5.33
2019-01-06T01:53:15.819Z,5.17
2019-01-06T01:56:02.526Z,5.23
2019-01-06T01:58:32.888Z,5.47
2019-01-06T02:01:02.975Z,5.77
2019-01-06T02:03:36.251Z,5.70
2019-01-06T02:06:06.668Z,4.70
2019-01-06T02:08:53.088Z,5.33
2019-01-06T02:11:23.309Z,4.93
2019-01-06T02:13:56.121Z,5.03
2019-01-06T02:16:26.363Z,5.70
2019-01-06T02:18:59.116Z,7.37
2019-01-06T02:21:45.352Z,8.07
2019-01-06T02:24:21.151Z,5.13
2019-01-06T02:26:51.342Z,5.53
2019-01-06T02:29:39.679Z,5.17
2019-01-06T02:32:12.769Z,5.43
2019-01-06T02:34:48.824Z,4.73
2019-01-06T02:37:19.011Z,5.77
2019-01-06T02:39:55.306Z,4.40
2019-01-06T02:42:40.780Z,4.40
2019-01-06T02:45:27.637Z,5.07
2019-01-06T02:48:13.944Z,4.63
2019-01-06T02:51:00.111Z,5.13
2019-01-06T02:53:32.768Z,4.90
2019-01-06T02:56:08.549Z,4.93
2019-01-06T02:58:55.196Z,5.40
2019-01-06T03:01:28.124Z,4.80
2019-01-06T03:03:58.396Z,5.10
2019-01-06T03:06:34.427Z,5.20
2019-01-06T03:09:07.190Z,4.90
2019-01-06T03:11:37.483Z,4.90
2019-01-06T03:14:19.937Z,4.93
2019-01-06T03:17:01.735Z,5.53
2019-01-06T03:19:48.136Z,4.30
2019-01-06T03:22:24.281Z,5.67
2019-01-06T03:25:12.828Z,5.27
2019-01-06T03:27:54.930Z,5.17
2019-01-06T03:30:33.834Z,5.37
2019-01-06T03:33:06.730Z,4.30
2019-01-06T03:35:53.455Z,5.00
2019-01-06T03:38:38.752Z,5.10
2019-01-06T03:41:08.816Z,5.03
2019-01-06T03:43:39.073Z,4.67
2019-01-06T03:46:25.775Z,4.70
2019-01-06T03:49:08.130Z,4.53
2019-01-06T03:51:38.288Z,4.90
2019-01-06T03:54:08.540Z,4.77
2019-01-06T03:56:38.646Z,5.07
2019-01-06T03:59:08.931Z,4.87
2019-01-06T04:01:48.051Z,4.83
2019-01-06T04:04:18.282Z,4.90
2019-01-06T04:06:51.404Z,4.50
2019-01-06T04:09:24.213Z,4.57
2019-01-06T04:12:06.633Z,4.00
2019-01-06T04:14:45.677Z,4.33
2019-01-06T04:17:18.814Z,4.07
2019-01-06T04:19:48.926Z,4.77
2019-01-06T04:22:25.103Z,4.97
2019-01-06T04:25:11.664Z,4.30
2019-01-06T04:27:59.948Z,4.10
2019-01-06T04:30:32.802Z,4.40
2019-01-06T04:33:02.884Z,4.23
2019-01-06T04:35:49.630Z,4.50
2019-01-06T04:38:31.785Z,3.83
2019-01-06T04:41:14.103Z,4.23
2019-01-06T04:43:59.427Z,4.40
2019-01-06T04:46:38.784Z,3.97
2019-01-06T04:49:25.110Z,4.23
2019-01-06T04:51:57.959Z,4.30
2019-01-06T04:54:30.875Z,3.90
2019-01-06T04:57:03.783Z,3.30
2019-01-06T04:59:50.441Z,3.47
2019-01-06T05:02:27.132Z,4.30
2019-01-06T05:05:12.112Z,3.40
2019-01-06T05:07:48.084Z,4.47
2019-01-06T05:10:21.055Z,3.73
2019-01-06T05:13:03.545Z,3.53
2019-01-06T05:15:42.540Z,3.73
2019-01-06T05:18:31.127Z,3.13
2019-01-06T05:21:01.333Z,3.13
2019-01-06T05:23:47.813Z,3.13
2019-01-06T05:26:34.199Z,2.90
2019-01-06T05:29:10.320Z,3.30
2019-01-06T05:31:55.281Z,3.17
2019-01-06T05:34:34.368Z,3.00
2019-01-06T05:37:07.417Z,2.53
2019-01-06T05:39:53.883Z,3.23
2019-01-06T05:42:24.085Z,2.83
2019-01-06T05:45:09.455Z,2.50
2019-01-06T05:47:39.604Z,3.13
2019-01-06T05:50:12.218Z,2.77
2019-01-06T05:52:45.239Z,2.93
2019-01-06T05:55:15.362Z,3.00
2019-01-06T05:57:45.486Z,2.77
2019-01-06T06:00:24.824Z,2.60
2019-01-06T06:02:54.888Z,3.20
2019-01-06T06:05:24.980Z,2.90
2019-01-06T06:07:58.099Z,3.20
2019-01-06T06:10:44.135Z,2.70
2019-01-06T06:13:30.729Z,2.93
2019-01-06T06:16:00.840Z,2.80
2019-01-06T06:18:37.191Z,2.63
2019-01-06T06:21:19.188Z,3.00
2019-01-06T06:24:05.953Z,2.80
2019-01-06T06:26:44.947Z,2.70
2019-01-06T06:29:31.403Z,3.60
2019-01-06T06:32:07.250Z,3.00
2019-01-06T06:34:40.187Z,2.70
2019-01-06T06:37:28.118Z,3.07
2019-01-06T06:40:13.334Z,3.10
2019-01-06T06:42:55.094Z,2.90
2019-01-06T06:45:41.143Z,2.90
2019-01-06T06:48:14.054Z,3.10
2019-01-06T06:50:55.230Z,3.40
2019-01-06T06:53:28.257Z,3.40
2019-01-06T06:56:16.708Z,3.30
2019-01-06T06:58:56.270Z,3.63
2019-01-06T07:01:31.513Z,3.50
2019-01-06T07:04:10.855Z,3.17
2019-01-06T07:06:59.095Z,3.60
2019-01-06T07:09:43.947Z,3.77
2019-01-06T07:12:26.393Z,3.43
2019-01-06T07:15:05.737Z,3.53
2019-01-06T07:17:51.490Z,3.63
2019-01-06T07:20:34.522Z,3.67
2019-01-06T07:23:20.992Z,3.73
2019-01-06T07:26:07.376Z,3.30
2019-01-06T07:28:53.645Z,3.63
2019-01-06T07:31:26.756Z,3.50
2019-01-06T07:34:15.334Z,2.80
2019-01-06T07:37:01.420Z,2.90
2019-01-06T07:39:40.567Z,3.50
2019-01-06T07:42:16.670Z,3.93
2019-01-06T07:44:46.803Z,3.70
2019-01-06T07:47:19.743Z,3.80
2019-01-06T07:49:52.593Z,3.53
2019-01-06T07:52:31.631Z,3.10
2019-01-06T07:55:04.807Z,3.10
2019-01-06T07:57:50.308Z,3.10
2019-01-06T08:00:32.287Z,3.10
2019-01-06T08:03:20.919Z,2.87
2019-01-06T08:05:57.063Z,3.30
2019-01-06T08:08:42.008Z,3.00
2019-01-06T08:11:12.266Z,3.60
2019-01-06T08:13:58.556Z,4.00
2019-01-06T08:16:28.756Z,3.80
2019-01-06T08:19:04.959Z,3.90
2019-01-06T08:21:44.136Z,4.83
2019-01-06T08:24:17.212Z,4.00
2019-01-06T08:26:50.292Z,4.30
2019-01-06T08:29:32.519Z,3.80
2019-01-06T08:32:11.728Z,3.53
2019-01-06T08:34:48.026Z,4.27
2019-01-06T08:37:33.102Z,4.07
2019-01-06T08:40:21.224Z,3.40
2019-01-06T08:43:07.640Z,4.40
2019-01-06T08:45:54.138Z,4.10
2019-01-06T08:48:24.439Z,4.17
2019-01-06T08:50:58.575Z,4.20
2019-01-06T08:53:34.413Z,4.07
2019-01-06T08:56:04.763Z,4.60
2019-01-06T08:58:38.252Z,4.50
2019-01-06T09:01:25.516Z,4.77
2019-01-06T09:04:12.124Z,4.90
2019-01-06T09:07:00.571Z,4.60
2019-01-06T09:09:33.704Z,4.70
2019-01-06T09:12:17.465Z,5.47
2019-01-06T09:14:56.432Z,4.87
2019-01-06T09:17:43.057Z,5.37
2019-01-06T09:20:29.982Z,5.50
2019-01-06T09:23:16.768Z,4.47
2019-01-06T09:25:47.000Z,5.23
2019-01-06T09:28:33.660Z,5.13
2019-01-06T09:31:15.862Z,5.20
2019-01-06T09:34:02.526Z,4.77
2019-01-06T09:36:35.442Z,5.53
2019-01-06T09:39:11.430Z,5.20
2019-01-06T09:41:58.664Z,5.90
2019-01-06T09:44:31.866Z,5.37
2019-01-06T09:47:02.007Z,6.23
2019-01-06T09:49:44.197Z,6.93
2019-01-06T09:52:32.918Z,7.20
2019-01-06T09:55:19.110Z,9.00
2019-01-06T09:58:04.223Z,9.50
2019-01-06T10:00:50.701Z,8.23
2019-01-06T10:03:29.848Z,7.70
2019-01-06T10:06:16.405Z,7.47
2019-01-06T10:09:02.572Z,6.63
2019-01-06T10:11:35.666Z,5.97
2019-01-06T10:14:22.381Z,6.63
2019-01-06T10:17:01.303Z,7.07
2019-01-06T10:19:34.098Z,6.40
2019-01-06T10:22:07.235Z,6.70
2019-01-06T10:24:39.967Z,5.73
2019-01-06T10:27:10.188Z,6.33
2019-01-06T10:29:46.047Z,6.20
2019-01-06T10:32:16.253Z,5.70
2019-01-06T10:34:46.519Z,5.40
2019-01-06T10:37:25.901Z,6.30
2019-01-06T10:40:05.456Z,5.23
2019-01-06T10:42:38.092Z,5.97
2019-01-06T10:45:26.758Z,6.53
2019-01-06T10:47:57.065Z,5.90
2019-01-06T10:50:30.010Z,6.60
2019-01-06T10:53:03.146Z,7.10
2019-01-06T10:55:51.792Z,5.43
2019-01-06T10:58:37.250Z,5.73
2019-01-06T11:01:24.641Z,5.23
2019-01-06T11:03:55.019Z,5.40
2019-01-06T11:06:41.339Z,5.43
2019-01-06T11:09:23.374Z,5.00
2019-01-06T11:11:59.495Z,5.27
2019-01-06T11:14:32.115Z,5.47
2019-01-06T11:17:02.277Z,5.10
2019-01-06T11:19:48.901Z,5.27
2019-01-06T11:22:24.695Z,5.53
2019-01-06T11:26:27.684Z,5.60
2019-01-06T11:29:00.670Z,4.97
2019-01-06T11:31:40.088Z,5.40
2019-01-06T11:34:26.733Z,5.80
2019-01-06T11:37:12.201Z,6.10
2019-01-06T11:39:48.094Z,5.33
2019-01-06T11:42:34.501Z,6.07
2019-01-06T11:45:04.623Z,6.60
2019-01-06T11:47:37.374Z,6.57
2019-01-06T11:50:07.551Z,7.20
2019-01-06T11:52:49.587Z,7.40
2019-01-06T11:55:19.857Z,7.00
2019-01-06T11:57:55.855Z,7.13
2019-01-06T12:00:26.041Z,7.23
2019-01-06T12:03:12.694Z,6.53
2019-01-06T12:05:48.667Z,6.60
2019-01-06T12:08:18.828Z,6.83
2019-01-06T12:10:58.475Z,7.40
2019-01-06T12:13:44.974Z,6.47
2019-01-06T12:16:15.243Z,6.73
2019-01-06T12:18:54.439Z,7.10
2019-01-06T12:21:33.551Z,7.17
2019-01-06T12:24:09.469Z,6.27
2019-01-06T12:26:48.621Z,5.97
2019-01-06T12:29:21.594Z,6.37
2019-01-06T12:31:51.705Z,5.40
2019-01-06T12:34:38.242Z,5.00
2019-01-06T12:37:25.026Z,4.63
2019-01-06T12:40:11.529Z,4.97
2019-01-06T12:42:58.308Z,5.07
2019-01-06T12:45:45.177Z,5.80
2019-01-06T12:48:20.934Z,5.80
2019-01-06T12:50:54.066Z,5.90
2019-01-06T12:53:38.120Z,5.13
2019-01-06T12:56:17.100Z,5.20
2019-01-06T12:59:03.496Z,5.90
2019-01-06T13:01:42.838Z,5.90
2019-01-06T13:04:22.172Z,6.73
2019-01-06T13:06:55.257Z,6.50
2019-01-06T13:09:31.638Z,6.50
2019-01-06T13:12:18.275Z,7.37
2019-01-06T13:14:48.439Z,7.67
2019-01-06T13:17:21.450Z,6.73
2019-01-06T13:20:09.976Z,7.53
2019-01-06T13:22:42.654Z,6.87
2019-01-06T13:25:12.761Z,8.33
2019-01-06T13:27:45.801Z,8.13
2019-01-06T13:30:22.139Z,8.03
2019-01-06T13:32:52.252Z,7.73
2019-01-06T13:35:34.301Z,7.60
2019-01-06T13:38:20.781Z,7.67
2019-01-06T13:41:02.874Z,7.17
2019-01-06T13:43:28.489Z,7.07
2019-01-06T13:45:58.777Z,6.83
2019-01-06T13:48:42.812Z,6.90
2019-01-06T13:51:28.113Z,6.70
2019-01-06T13:54:10.557Z,6.37
2019-01-06T13:56:43.534Z,6.83
2019-01-06T13:59:13.830Z,6.70
2019-01-06T14:01:50.168Z,5.67
2019-01-06T14:04:23.361Z,7.37
2019-01-06T14:07:09.018Z,7.17
2019-01-06T14:09:44.865Z,6.53
2019-01-06T14:12:15.039Z,6.93
2019-01-06T14:14:47.984Z,6.70
2019-01-06T14:17:21.110Z,7.13
2019-01-06T14:19:54.219Z,7.27
2019-01-06T14:22:36.530Z,7.83
2019-01-06T14:25:24.581Z,8.40
2019-01-06T14:28:11.359Z,8.90
2019-01-06T14:30:47.685Z,8.30
2019-01-06T14:33:21.359Z,8.63
2019-01-06T14:35:54.596Z,10.00
2019-01-06T14:38:41.433Z,9.20
2019-01-06T14:41:20.369Z,9.40
2019-01-06T14:43:53.480Z,10.00
2019-01-06T14:48:04.854Z,9.60
2019-01-06T14:50:35.014Z,9.93
2019-01-06T14:53:17.526Z,8.97
2019-01-06T14:55:47.772Z,8.87
2019-01-06T14:58:20.749Z,8.70
2019-01-06T15:00:50.906Z,9.23
2019-01-06T15:03:37.488Z,9.43
2019-01-06T15:06:19.583Z,9.90
2019-01-06T15:09:01.308Z,10.10
2019-01-06T15:11:49.252Z,10.07
2019-01-06T15:14:35.862Z,8.53
2019-01-06T15:17:15.019Z,8.10
2019-01-06T15:20:03.187Z,9.60
2019-01-06T15:22:48.970Z,9.53
2019-01-06T15:25:22.720Z,11.00
2019-01-06T15:28:04.736Z,10.17
2019-01-06T15:30:40.873Z,8.47
2019-01-06T15:33:27.387Z,8.33
2019-01-06T15:36:12.824Z,9.27
2019-01-06T15:38:52.025Z,9.07
2019-01-06T15:41:31.096Z,8.33
2019-01-06T15:44:17.574Z,7.53
2019-01-06T23:04:39.619Z,17.13
2019-01-06T23:07:23.473Z,12.67
2019-01-06T23:10:02.976Z,10.73
2019-01-06T23:12:36.648Z,12.77
2019-01-06T23:15:16.113Z,13.43
2019-01-06T23:18:02.698Z,15.50
2019-01-06T23:20:35.547Z,17.43
2019-01-06T23:23:24.051Z,13.40
2019-01-06T23:26:03.648Z,13.47
2019-01-06T23:28:34.021Z,14.47
2019-01-06T23:31:04.120Z,13.27
2019-01-06T23:33:37.676Z,20.53
2019-01-06T23:36:08.131Z,17.57
2019-01-06T23:38:54.979Z,13.20
2019-01-06T23:41:28.092Z,11.87
2019-01-06T23:44:01.743Z,11.83
2019-01-06T23:46:34.791Z,12.37
2019-01-06T23:49:07.728Z,14.50
2019-01-06T23:51:50.103Z,16.40
2019-01-06T23:54:20.406Z,17.27
2019-01-06T23:57:05.921Z,17.07
2019-01-06T23:59:41.945Z,17.80
